Nearby METAR Reports

 

KSLC - Salt Lake City, Utah, USA
Distance from station: SW 8mi, 13km
Updated: Mon, 21-May-2018 3:54pm MDT
Mostly cloudy
Mostly cloudy
 Wind from E
Wind: E 8 mph , 13 km/h
Temperature: 79°F , 26°C
Dew Point: 36°F , 2°C
Humidity: 21%
Barometer: 29.82 inHg , 1009.8 hPa
Clouds: Mostly cloudy
Visibility: 10 miles , 16 km
Cloud details: Few Clouds 8000 ft
Few Clouds 14000 ft
Mostly cloudy 18000 ft
Mostly cloudy 25000 ft
2018/05/21 21:54 KSLC 212154Z 10007KT 070V130 10SM FEW080 FEW140 BKN180 BKN250 26/02 A2982 RMK AO2 SLP055 VIRGA CB DSNT ALQDS TCU DSNT N T02610022
KU42 - Salt Lake Muni, Utah, USA
Distance from station: SSW 18mi, 28km
Updated: Mon, 21-May-2018 4:15pm MDT
Clear
Clear
 Wind from N
Wind: N 10 mph , 17 km/h
Temperature: 75°F , 24°C
Dew Point: 43°F , 6°C
Humidity: 31%
Barometer: 29.85 inHg , 1010.8 hPa
Clouds: Clear
Visibility: 10 miles , 16 km
2018/05/21 22:15 KU42 212215Z AUTO 36009KT 10SM CLR 24/06 A2985 RMK AO1 T02360061
 
KHIF - Hill Afb/Ogden, Utah, USA
Distance from station: NNW 19mi, 30km
Updated: Mon, 21-May-2018 3:58pm MDT
Nearby thunderstorm, Mostly cloudy
Nearby thunderstorm, Mostly cloudy
 Wind from E
Wind: E 18 mph , 30 km/h, Gust: 28 mph , 44 km/h
Temperature: 75°F , 24°C
Dew Point: 37°F , 3°C
Humidity: 25%
Barometer: 29.87 inHg , 1011.5 hPa
Summary: Nearby Thunderstorm
Clouds: Mostly cloudy
Visibility: 10 miles , 16 km
Cloud details: Few Clouds 7500 ft
Few Clouds 17000 ft
Mostly cloudy 20000 ft
2018/05/21 21:58 KHIF 212158Z 09016G24KT 10SM VCTS FEW075 FEW170 BKN200 24/03 A2987 RMK AO2A PK WND 07029/56 SLP067 MIDFLD WND 07020G29KT T02390032
KOGD - Ogden, Utah, USA
Distance from station: NNW 25mi, 40km
Updated: Mon, 21-May-2018 4:03pm MDT
Nearby thunderstorm, Few clouds
Nearby thunderstorm, Few clouds
 Wind from E
Wind: E 20 mph , 31 km/h, Gust: 33 mph , 54 km/h
Temperature: 75°F , 24°C
Dew Point: 36°F , 2°C
Humidity: 24%
Barometer: 29.85 inHg , 1010.8 hPa
Summary: Nearby Thunderstorm
Clouds: Few Clouds
Visibility: 10 miles , 16 km
Cloud details: Few Clouds 10000 ft
2018/05/21 22:03 KOGD 212203Z 10017G29KT 10SM VCTS FEW100 24/02 A2985 RMK AO2 PK WND 11029/2154 WSHFT 2143 LTG DSNT N AND NE T02440022
 
K36U - Heber/Russ Mcdon, Utah, USA
Distance from station: SE 34mi, 55km
Updated: Wed, 11-Oct-2017 6:50pm MDT
NOT Current
Clear
Clear
 Wind from SSW
Wind: SSW 10 mph , 17 km/h, Gust: 18 mph , 30 km/h
Temperature: 63°F , 17°C
Dew Point: 16°F , -9°C
Humidity: 16%
Barometer: 29.87 inHg , 1011.5 hPa
Clouds: Clear
Visibility: 10 miles , 16 km
2017/10/12 00:50 K36U 120050Z AUTO 21009G16KT 10SM CLR 17/M09 A2987 RMK AO2
KPVU - Provo Muni, Utah, USA
Distance from station: S 45mi, 72km
Updated: Mon, 21-May-2018 3:56pm MDT
Mostly cloudy
Mostly cloudy
 Wind from W
Wind: W 7 mph , 11 km/h
Temperature: 73°F , 23°C
Dew Point: 48°F , 9°C
Humidity: 41%
Barometer: 29.85 inHg , 1010.8 hPa
Clouds: Mostly cloudy
Visibility: 10 miles , 16 km
Cloud details: Partly cloudy 10000 ft
Mostly cloudy 18000 ft
2018/05/21 21:56 KPVU 212156Z 27006KT 10SM SCT100 BKN180 23/09 A2985 RMK AO2 SLP063 T02330094